sensor_id;sensor_type;location;lat;lon;timestamp;pressure;altitude;pressure_sealevel;temperature;humidity
72855;BME280;60991;51.278;22.550;2022-11-12T00:00:51;100484.28;;;10.93;77.74
72855;BME280;60991;51.278;22.550;2022-11-12T00:02:21;100485.56;;;10.84;78.06
72855;BME280;60991;51.278;22.550;2022-11-12T00:03:51;100490.25;;;10.89;77.75
72855;BME280;60991;51.278;22.550;2022-11-12T00:05:21;100485.34;;;10.86;77.93
72855;BME280;60991;51.278;22.550;2022-11-12T00:06:52;100482.75;;;10.72;78.35
72855;BME280;60991;51.278;22.550;2022-11-12T00:08:22;100476.78;;;10.77;78.35
72855;BME280;60991;51.278;22.550;2022-11-12T00:09:52;100485.66;;;10.64;79.19
72855;BME280;60991;51.278;22.550;2022-11-12T00:11:22;100485.84;;;10.63;79.02
72855;BME280;60991;51.278;22.550;2022-11-12T00:12:53;100483.59;;;10.66;78.97
72855;BME280;60991;51.278;22.550;2022-11-12T00:14:23;100491.34;;;10.74;78.69
72855;BME280;60991;51.278;22.550;2022-11-12T00:15:53;100493.94;;;10.81;78.64
72855;BME280;60991;51.278;22.550;2022-11-12T00:17:24;100492.91;;;10.89;78.21
72855;BME280;60991;51.278;22.550;2022-11-12T00:18:54;100498.56;;;10.99;77.54
72855;BME280;60991;51.278;22.550;2022-11-12T00:20:24;100500.06;;;10.82;77.90
72855;BME280;60991;51.278;22.550;2022-11-12T00:21:57;100496.47;;;10.69;78.73
72855;BME280;60991;51.278;22.550;2022-11-12T00:23:27;100502.31;;;10.78;78.42
72855;BME280;60991;51.278;22.550;2022-11-12T00:24:58;100496.16;;;10.91;77.97
72855;BME280;60991;51.278;22.550;2022-11-12T00:26:28;100510.34;;;10.71;78.51
72855;BME280;60991;51.278;22.550;2022-11-12T00:28:03;100498.94;;;10.58;79.14
72855;BME280;60991;51.278;22.550;2022-11-12T00:29:34;100506.75;;;10.53;79.42
72855;BME280;60991;51.278;22.550;2022-11-12T00:31:08;100498.53;;;10.61;79.10
72855;BME280;60991;51.278;22.550;2022-11-12T00:32:39;100498.50;;;10.67;78.98
72855;BME280;60991;51.278;22.550;2022-11-12T00:34:09;100491.53;;;10.73;78.79
72855;BME280;60991;51.278;22.550;2022-11-12T00:35:39;100493.41;;;10.66;79.26
72855;BME280;60991;51.278;22.550;2022-11-12T00:37:09;100490.94;;;10.71;79.12
72855;BME280;60991;51.278;22.550;2022-11-12T00:38:40;100497.09;;;10.65;79.33
72855;BME280;60991;51.278;22.550;2022-11-12T00:40:10;100490.88;;;10.77;79.27
72855;BME280;60991;51.278;22.550;2022-11-12T00:41:40;100495.63;;;10.69;78.97
72855;BME280;60991;51.278;22.550;2022-11-12T00:43:11;100490.34;;;10.69;79.11
72855;BME280;60991;51.278;22.550;2022-11-12T00:44:41;100492.56;;;10.72;79.10
72855;BME280;60991;51.278;22.550;2022-11-12T00:46:11;100493.72;;;10.83;78.78
72855;BME280;60991;51.278;22.550;2022-11-12T00:47:41;100489.25;;;10.83;78.88
72855;BME280;60991;51.278;22.550;2022-11-12T00:49:12;100495.75;;;10.87;78.94
72855;BME280;60991;51.278;22.550;2022-11-12T00:50:42;100491.06;;;10.83;79.17
72855;BME280;60991;51.278;22.550;2022-11-12T00:52:12;100495.94;;;10.92;78.81
72855;BME280;60991;51.278;22.550;2022-11-12T00:53:46;100504.34;;;10.89;78.70
72855;BME280;60991;51.278;22.550;2022-11-12T00:55:16;100511.09;;;10.79;79.21
72855;BME280;60991;51.278;22.550;2022-11-12T00:56:47;100509.66;;;10.89;78.62
72855;BME280;60991;51.278;22.550;2022-11-12T00:58:17;100498.59;;;10.92;78.63
72855;BME280;60991;51.278;22.550;2022-11-12T00:59:47;100499.25;;;10.81;79.29
72855;BME280;60991;51.278;22.550;2022-11-12T01:01:18;100503.16;;;10.79;79.26
72855;BME280;60991;51.278;22.550;2022-11-12T01:02:49;100501.75;;;10.76;79.65
72855;BME280;60991;51.278;22.550;2022-11-12T01:04:19;100500.47;;;10.85;79.22
72855;BME280;60991;51.278;22.550;2022-11-12T01:05:49;100493.91;;;10.88;78.96
72855;BME280;60991;51.278;22.550;2022-11-12T01:07:19;100504.94;;;10.91;78.90
72855;BME280;60991;51.278;22.550;2022-11-12T01:08:50;100508.41;;;10.92;78.91
72855;BME280;60991;51.278;22.550;2022-11-12T01:10:21;100502.31;;;10.78;79.41
72855;BME280;60991;51.278;22.550;2022-11-12T01:11:51;100503.31;;;10.90;78.93
72855;BME280;60991;51.278;22.550;2022-11-12T01:13:21;100506.19;;;10.82;79.35
72855;BME280;60991;51.278;22.550;2022-11-12T01:14:51;100509.34;;;10.66;79.39
72855;BME280;60991;51.278;22.550;2022-11-12T01:16:24;100504.84;;;10.66;79.81
72855;BME280;60991;51.278;22.550;2022-11-12T01:17:54;100500.34;;;10.73;79.34
72855;BME280;60991;51.278;22.550;2022-11-12T01:19:24;100498.03;;;10.84;78.85
72855;BME280;60991;51.278;22.550;2022-11-12T01:20:59;100506.00;;;10.84;79.29
72855;BME280;60991;51.278;22.550;2022-11-12T01:22:29;100501.06;;;10.87;79.15
72855;BME280;60991;51.278;22.550;2022-11-12T01:24:00;100501.88;;;10.94;78.84
72855;BME280;60991;51.278;22.550;2022-11-12T01:25:30;100506.38;;;10.94;78.86
72855;BME280;60991;51.278;22.550;2022-11-12T01:27:00;100503.06;;;10.98;78.67
72855;BME280;60991;51.278;22.550;2022-11-12T01:28:31;100505.31;;;10.95;78.85
72855;BME280;60991;51.278;22.550;2022-11-12T01:30:01;100508.16;;;11.00;78.49
72855;BME280;60991;51.278;22.550;2022-11-12T01:31:34;100505.91;;;11.03;78.47
72855;BME280;60991;51.278;22.550;2022-11-12T01:33:04;100505.06;;;11.03;78.56
72855;BME280;60991;51.278;22.550;2022-11-12T01:34:34;100496.72;;;10.99;78.26
72855;BME280;60991;51.278;22.550;2022-11-12T01:36:05;100503.25;;;11.03;78.23
72855;BME280;60991;51.278;22.550;2022-11-12T01:37:35;100506.50;;;11.05;77.98
72855;BME280;60991;51.278;22.550;2022-11-12T01:39:06;100510.81;;;11.00;78.43
72855;BME280;60991;51.278;22.550;2022-11-12T01:40:37;100519.59;;;11.00;77.99
72855;BME280;60991;51.278;22.550;2022-11-12T01:42:07;100504.34;;;10.89;78.44
72855;BME280;60991;51.278;22.550;2022-11-12T01:43:37;100511.22;;;10.97;78.14
72855;BME280;60991;51.278;22.550;2022-11-12T01:45:16;100515.16;;;10.94;78.33
72855;BME280;60991;51.278;22.550;2022-11-12T01:46:58;100506.13;;;10.95;78.43
72855;BME280;60991;51.278;22.550;2022-11-12T01:48:33;100505.72;;;10.98;78.39
72855;BME280;60991;51.278;22.550;2022-11-12T01:51:41;100509.97;;;11.06;78.08
72855;BME280;60991;51.278;22.550;2022-11-12T01:53:13;100513.53;;;10.93;78.27
72855;BME280;60991;51.278;22.550;2022-11-12T01:54:46;100509.38;;;11.04;77.95
72855;BME280;60991;51.278;22.550;2022-11-12T01:56:19;100519.56;;;11.07;77.81
72855;BME280;60991;51.278;22.550;2022-11-12T01:57:55;100517.31;;;11.10;77.82
72855;BME280;60991;51.278;22.550;2022-11-12T01:59:34;100515.47;;;11.11;77.78
72855;BME280;60991;51.278;22.550;2022-11-12T02:01:05;100520.13;;;11.16;77.59
72855;BME280;60991;51.278;22.550;2022-11-12T02:02:36;100517.91;;;11.13;77.71
72855;BME280;60991;51.278;22.550;2022-11-12T02:04:07;100521.75;;;11.17;77.29
72855;BME280;60991;51.278;22.550;2022-11-12T02:05:39;100526.25;;;11.16;77.49
72855;BME280;60991;51.278;22.550;2022-11-12T02:07:10;100518.72;;;11.13;77.68
72855;BME280;60991;51.278;22.550;2022-11-12T02:08:42;100524.69;;;11.08;77.98
72855;BME280;60991;51.278;22.550;2022-11-12T02:10:13;100522.19;;;11.14;77.62
72855;BME280;60991;51.278;22.550;2022-11-12T02:11:44;100515.03;;;11.14;77.68
72855;BME280;60991;51.278;22.550;2022-11-12T02:13:14;100520.72;;;11.18;77.51
72855;BME280;60991;51.278;22.550;2022-11-12T02:14:45;100519.91;;;11.17;77.24
72855;BME280;60991;51.278;22.550;2022-11-12T02:16:15;100515.84;;;11.15;77.65
72855;BME280;60991;51.278;22.550;2022-11-12T02:17:45;100517.03;;;11.19;77.40
72855;BME280;60991;51.278;22.550;2022-11-12T02:19:16;100520.34;;;11.14;77.44
72855;BME280;60991;51.278;22.550;2022-11-12T02:20:56;100518.28;;;11.16;77.60
72855;BME280;60991;51.278;22.550;2022-11-12T02:22:26;100518.69;;;11.20;77.46
72855;BME280;60991;51.278;22.550;2022-11-12T02:25:40;100530.38;;;11.12;77.59
72855;BME280;60991;51.278;22.550;2022-11-12T02:27:11;100520.38;;;11.07;77.46
72855;BME280;60991;51.278;22.550;2022-11-12T02:28:41;100522.63;;;11.10;77.60
72855;BME280;60991;51.278;22.550;2022-11-12T02:30:11;100524.47;;;11.10;77.71
72855;BME280;60991;51.278;22.550;2022-11-12T02:31:42;100527.72;;;11.12;77.23
72855;BME280;60991;51.278;22.550;2022-11-12T02:33:12;100529.72;;;11.17;77.21
72855;BME280;60991;51.278;22.550;2022-11-12T02:34:42;100536.28;;;11.14;77.65
72855;BME280;60991;51.278;22.550;2022-11-12T02:36:12;100529.72;;;11.17;77.20
72855;BME280;60991;51.278;22.550;2022-11-12T02:37:43;100535.66;;;11.19;77.44
72855;BME280;60991;51.278;22.550;2022-11-12T02:39:13;100541.28;;;10.97;77.86
72855;BME280;60991;51.278;22.550;2022-11-12T02:40:43;100536.94;;;11.09;77.78
72855;BME280;60991;51.278;22.550;2022-11-12T02:42:14;100537.34;;;11.13;77.54
72855;BME280;60991;51.278;22.550;2022-11-12T02:43:47;100542.66;;;11.06;77.93
72855;BME280;60991;51.278;22.550;2022-11-12T02:45:17;100543.31;;;11.02;77.63
72855;BME280;60991;51.278;22.550;2022-11-12T02:46:48;100539.19;;;11.06;77.60
72855;BME280;60991;51.278;22.550;2022-11-12T02:48:18;100540.84;;;11.07;77.56
72855;BME280;60991;51.278;22.550;2022-11-12T02:49:48;100548.81;;;11.00;78.03
72855;BME280;60991;51.278;22.550;2022-11-12T02:51:18;100539.00;;;11.07;77.84
72855;BME280;60991;51.278;22.550;2022-11-12T02:52:49;100544.69;;;11.11;77.77
72855;BME280;60991;51.278;22.550;2022-11-12T02:54:19;100545.06;;;11.15;77.60
72855;BME280;60991;51.278;22.550;2022-11-12T02:55:49;100545.66;;;11.17;77.29
72855;BME280;60991;51.278;22.550;2022-11-12T02:57:20;100545.06;;;11.15;77.85
72855;BME280;60991;51.278;22.550;2022-11-12T02:58:50;100543.84;;;11.17;77.31
72855;BME280;60991;51.278;22.550;2022-11-12T03:00:20;100543.44;;;11.14;77.42
72855;BME280;60991;51.278;22.550;2022-11-12T03:01:51;100547.97;;;11.13;77.71
72855;BME280;60991;51.278;22.550;2022-11-12T03:03:21;100551.41;;;11.14;77.64
72855;BME280;60991;51.278;22.550;2022-11-12T03:04:52;100554.47;;;11.17;77.41
72855;BME280;60991;51.278;22.550;2022-11-12T03:06:22;100553.66;;;11.17;77.64
72855;BME280;60991;51.278;22.550;2022-11-12T03:08:00;100545.84;;;11.22;77.28
72855;BME280;60991;51.278;22.550;2022-11-12T03:09:31;100547.28;;;11.24;77.36
72855;BME280;60991;51.278;22.550;2022-11-12T03:11:08;100546.69;;;11.22;77.35
72855;BME280;60991;51.278;22.550;2022-11-12T03:12:39;100543.19;;;11.28;77.11
72855;BME280;60991;51.278;22.550;2022-11-12T03:14:09;100543.59;;;11.25;77.07
72855;BME280;60991;51.278;22.550;2022-11-12T03:15:39;100546.88;;;11.21;77.27
72855;BME280;60991;51.278;22.550;2022-11-12T03:17:09;100542.56;;;11.26;77.13
72855;BME280;60991;51.278;22.550;2022-11-12T03:18:40;100544.00;;;11.29;76.90
72855;BME280;60991;51.278;22.550;2022-11-12T03:20:10;100547.31;;;11.18;77.33
72855;BME280;60991;51.278;22.550;2022-11-12T03:21:41;100544.66;;;11.18;77.26
72855;BME280;60991;51.278;22.550;2022-11-12T03:23:11;100540.63;;;11.08;77.28
72855;BME280;60991;51.278;22.550;2022-11-12T03:24:41;100542.66;;;11.13;77.26
72855;BME280;60991;51.278;22.550;2022-11-12T03:26:11;100540.00;;;11.13;77.47
72855;BME280;60991;51.278;22.550;2022-11-12T03:27:41;100541.66;;;11.07;77.54
72855;BME280;60991;51.278;22.550;2022-11-12T03:29:12;100536.72;;;11.11;77.40
72855;BME280;60991;51.278;22.550;2022-11-12T03:30:42;100536.69;;;11.18;77.56
72855;BME280;60991;51.278;22.550;2022-11-12T03:32:13;100540.00;;;11.13;77.53
72855;BME280;60991;51.278;22.550;2022-11-12T03:33:46;100542.00;;;11.18;77.53
72855;BME280;60991;51.278;22.550;2022-11-12T03:35:16;100543.22;;;11.15;77.32
72855;BME280;60991;51.278;22.550;2022-11-12T03:36:46;100547.09;;;11.19;77.17
72855;BME280;60991;51.278;22.550;2022-11-12T03:38:16;100537.06;;;11.21;77.24
72855;BME280;60991;51.278;22.550;2022-11-12T03:39:47;100533.19;;;11.24;77.22
72855;BME280;60991;51.278;22.550;2022-11-12T03:41:17;100543.38;;;11.27;76.80
72855;BME280;60991;51.278;22.550;2022-11-12T03:42:49;100541.75;;;11.26;77.04
72855;BME280;60991;51.278;22.550;2022-11-12T03:44:19;100537.84;;;11.28;76.77
72855;BME280;60991;51.278;22.550;2022-11-12T03:45:49;100540.72;;;11.27;76.86
72855;BME280;60991;51.278;22.550;2022-11-12T03:47:19;100540.72;;;11.27;77.14
72855;BME280;60991;51.278;22.550;2022-11-12T03:48:50;100539.09;;;11.26;76.79
72855;BME280;60991;51.278;22.550;2022-11-12T03:50:22;100537.47;;;11.25;76.87
72855;BME280;60991;51.278;22.550;2022-11-12T03:51:53;100534.41;;;11.21;77.01
72855;BME280;60991;51.278;22.550;2022-11-12T03:53:24;100534.03;;;11.18;77.13
72855;BME280;60991;51.278;22.550;2022-11-12T03:54:54;100535.44;;;11.20;77.15
72855;BME280;60991;51.278;22.550;2022-11-12T03:56:24;100541.78;;;11.19;76.91
72855;BME280;60991;51.278;22.550;2022-11-12T03:57:55;100543.00;;;11.17;77.20
72855;BME280;60991;51.278;22.550;2022-11-12T03:59:26;100550.34;;;11.21;77.09
72855;BME280;60991;51.278;22.550;2022-11-12T04:00:56;100551.19;;;11.22;77.08
72855;BME280;60991;51.278;22.550;2022-11-12T04:02:26;100541.56;;;11.21;77.14
72855;BME280;60991;51.278;22.550;2022-11-12T04:03:57;100539.94;;;11.20;77.13
72855;BME280;60991;51.278;22.550;2022-11-12T04:05:27;100539.94;;;11.20;76.99
72855;BME280;60991;51.278;22.550;2022-11-12T04:06:57;100539.94;;;11.20;77.16
72855;BME280;60991;51.278;22.550;2022-11-12T04:08:27;100545.47;;;11.18;77.07
72855;BME280;60991;51.278;22.550;2022-11-12T04:09:58;100547.69;;;11.21;76.97
72855;BME280;60991;51.278;22.550;2022-11-12T04:11:28;100545.66;;;11.23;76.91
72855;BME280;60991;51.278;22.550;2022-11-12T04:12:58;100540.78;;;11.14;77.10
72855;BME280;60991;51.278;22.550;2022-11-12T04:14:28;100544.03;;;11.16;77.13
72855;BME280;60991;51.278;22.550;2022-11-12T04:16:22;100544.03;;;11.16;76.92
72855;BME280;60991;51.278;22.550;2022-11-12T04:17:51;100550.78;;;11.18;77.13
72855;BME280;60991;51.278;22.550;2022-11-12T04:19:21;100544.94;;;11.03;77.91
72855;BME280;60991;51.278;22.550;2022-11-12T04:20:51;100539.41;;;11.04;77.88
72855;BME280;60991;51.278;22.550;2022-11-12T04:22:21;100544.69;;;11.11;77.55
72855;BME280;60991;51.278;22.550;2022-11-12T04:23:51;100543.50;;;11.07;77.63
72855;BME280;60991;51.278;22.550;2022-11-12T04:25:22;100545.31;;;11.13;77.10
72855;BME280;60991;51.278;22.550;2022-11-12T04:26:52;100543.44;;;11.14;77.38
72855;BME280;60991;51.278;22.550;2022-11-12T04:28:22;100537.34;;;11.06;77.13
72855;BME280;60991;51.278;22.550;2022-11-12T04:29:53;100544.94;;;11.03;77.82
72855;BME280;60991;51.278;22.550;2022-11-12T04:31:24;100543.09;;;11.03;77.53
72855;BME280;60991;51.278;22.550;2022-11-12T04:32:54;100548.41;;;11.03;77.77
72855;BME280;60991;51.278;22.550;2022-11-12T04:34:24;100541.47;;;11.02;77.93
72855;BME280;60991;51.278;22.550;2022-11-12T04:35:54;100540.66;;;11.02;77.79
72855;BME280;60991;51.278;22.550;2022-11-12T04:37:27;100545.53;;;11.05;77.62
72855;BME280;60991;51.278;22.550;2022-11-12T04:38:57;100548.19;;;11.12;77.34
72855;BME280;60991;51.278;22.550;2022-11-12T04:40:28;100552.69;;;11.11;77.67
72855;BME280;60991;51.278;22.550;2022-11-12T04:41:58;100544.69;;;11.11;77.74
72855;BME280;60991;51.278;22.550;2022-11-12T04:43:29;100542.25;;;11.09;77.81
72855;BME280;60991;51.278;22.550;2022-11-12T04:44:59;100549.00;;;11.12;77.37
72855;BME280;60991;51.278;22.550;2022-11-12T04:46:29;100541.03;;;11.12;77.68
72855;BME280;60991;51.278;22.550;2022-11-12T04:47:59;100536.78;;;10.98;77.95
72855;BME280;60991;51.278;22.550;2022-11-12T04:49:30;100542.75;;;10.93;78.69
72855;BME280;60991;51.278;22.550;2022-11-12T04:51:04;100541.31;;;10.91;78.46
72855;BME280;60991;51.278;22.550;2022-11-12T04:52:34;100544.59;;;10.93;78.24
72855;BME280;60991;51.278;22.550;2022-11-12T04:54:05;100543.94;;;10.97;78.25
72855;BME280;60991;51.278;22.550;2022-11-12T04:55:35;100541.94;;;10.86;78.65
72855;BME280;60991;51.278;22.550;2022-11-12T04:57:05;100548.88;;;10.94;78.60
72855;BME280;60991;51.278;22.550;2022-11-12T04:58:35;100552.91;;;10.96;78.15
72855;BME280;60991;51.278;22.550;2022-11-12T05:00:06;100547.38;;;11.04;78.29
72855;BME280;60991;51.278;22.550;2022-11-12T05:01:36;100543.69;;;11.05;77.82
72855;BME280;60991;51.278;22.550;2022-11-12T05:03:07;100546.16;;;11.07;78.03
72855;BME280;60991;51.278;22.550;2022-11-12T05:04:37;100543.69;;;11.05;77.93
72855;BME280;60991;51.278;22.550;2022-11-12T05:06:08;100538.00;;;11.02;78.32
72855;BME280;60991;51.278;22.550;2022-11-12T05:07:38;100537.38;;;11.00;78.40
72855;BME280;60991;51.278;22.550;2022-11-12T05:09:09;100538.63;;;10.97;78.13
72855;BME280;60991;51.278;22.550;2022-11-12T05:10:39;100542.13;;;10.91;78.20
72855;BME280;60991;51.278;22.550;2022-11-12T05:12:09;100533.97;;;10.93;78.36
72855;BME280;60991;51.278;22.550;2022-11-12T05:13:39;100538.81;;;10.96;78.40
72855;BME280;60991;51.278;22.550;2022-11-12T05:15:10;100544.13;;;10.96;78.17
72855;BME280;60991;51.278;22.550;2022-11-12T05:16:40;100547.66;;;10.90;78.68
72855;BME280;60991;51.278;22.550;2022-11-12T05:18:11;100542.28;;;10.96;78.22
72855;BME280;60991;51.278;22.550;2022-11-12T05:19:41;100544.19;;;10.89;78.77
72855;BME280;60991;51.278;22.550;2022-11-12T05:21:11;100544.78;;;10.91;78.34
72855;BME280;60991;51.278;22.550;2022-11-12T05:22:41;100538.81;;;10.96;78.46
72855;BME280;60991;51.278;22.550;2022-11-12T05:24:11;100538.63;;;10.97;78.43
72855;BME280;60991;51.278;22.550;2022-11-12T05:25:42;100546.78;;;10.96;78.24
72855;BME280;60991;51.278;22.550;2022-11-12T05:27:15;100552.34;;;10.94;78.51
72855;BME280;60991;51.278;22.550;2022-11-12T05:28:45;100544.19;;;10.89;78.68
72855;BME280;60991;51.278;22.550;2022-11-12T05:30:15;100541.94;;;10.86;78.63
72855;BME280;60991;51.278;22.550;2022-11-12T05:31:46;100545.84;;;10.84;79.12
72855;BME280;60991;51.278;22.550;2022-11-12T05:33:16;100550.81;;;10.67;79.43
72855;BME280;60991;51.278;22.550;2022-11-12T05:34:46;100549.00;;;10.54;80.08
72855;BME280;60991;51.278;22.550;2022-11-12T05:36:16;100547.31;;;10.66;79.61
72855;BME280;60991;51.278;22.550;2022-11-12T05:37:46;100552.84;;;10.58;79.84
72855;BME280;60991;51.278;22.550;2022-11-12T05:39:17;100553.25;;;10.62;79.90
72855;BME280;60991;51.278;22.550;2022-11-12T05:40:47;100550.63;;;10.55;80.25
72855;BME280;60991;51.278;22.550;2022-11-12T05:42:17;100541.03;;;10.54;80.12
72855;BME280;60991;51.278;22.550;2022-11-12T05:43:47;100543.50;;;10.43;80.54
72855;BME280;60991;51.278;22.550;2022-11-12T05:45:18;100546.16;;;10.49;80.27
72855;BME280;60991;51.278;22.550;2022-11-12T05:46:48;100538.13;;;10.62;80.07
72855;BME280;60991;51.278;22.550;2022-11-12T05:48:18;100544.47;;;10.61;79.68
72855;BME280;60991;51.278;22.550;2022-11-12T05:49:48;100550.66;;;10.49;80.33
72855;BME280;60991;51.278;22.550;2022-11-12T05:51:18;100557.78;;;10.48;80.36
72855;BME280;60991;51.278;22.550;2022-11-12T05:52:49;100558.81;;;10.47;80.16
72855;BME280;60991;51.278;22.550;2022-11-12T05:54:19;100552.47;;;10.55;80.23
72855;BME280;60991;51.278;22.550;2022-11-12T05:55:49;100554.06;;;10.62;79.98
72855;BME280;60991;51.278;22.550;2022-11-12T05:57:19;100554.94;;;10.56;80.13
72855;BME280;60991;51.278;22.550;2022-11-12T05:58:49;100558.00;;;10.53;79.92
72855;BME280;60991;51.278;22.550;2022-11-12T06:00:20;100556.97;;;10.54;80.10
72855;BME280;60991;51.278;22.550;2022-11-12T06:01:50;100561.69;;;10.46;80.22
72855;BME280;60991;51.278;22.550;2022-11-12T06:03:20;100559.84;;;10.46;80.49
72855;BME280;60991;51.278;22.550;2022-11-12T06:04:50;100555.75;;;10.44;80.50
72855;BME280;60991;51.278;22.550;2022-11-12T06:06:21;100561.66;;;10.52;80.20
72855;BME280;60991;51.278;22.550;2022-11-12T06:07:51;100561.66;;;10.52;80.20
72855;BME280;60991;51.278;22.550;2022-11-12T06:09:22;100564.94;;;10.48;80.49
72855;BME280;60991;51.278;22.550;2022-11-12T06:10:52;100561.47;;;10.40;80.92
72855;BME280;60991;51.278;22.550;2022-11-12T06:12:23;100561.50;;;10.34;80.90
72855;BME280;60991;51.278;22.550;2022-11-12T06:13:53;100567.81;;;10.46;80.57
72855;BME280;60991;51.278;22.550;2022-11-12T06:15:24;100564.94;;;10.48;80.28
72855;BME280;60991;51.278;22.550;2022-11-12T06:16:54;100564.94;;;10.48;80.49
72855;BME280;60991;51.278;22.550;2022-11-12T06:18:26;100563.09;;;10.55;80.38
72855;BME280;60991;51.278;22.550;2022-11-12T06:19:56;100563.31;;;10.53;80.18
72855;BME280;60991;51.278;22.550;2022-11-12T06:21:26;100561.06;;;10.57;80.22
72855;BME280;60991;51.278;22.550;2022-11-12T06:22:56;100558.16;;;10.65;79.61
72855;BME280;60991;51.278;22.550;2022-11-12T06:24:27;100562.66;;;10.64;79.94
72855;BME280;60991;51.278;22.550;2022-11-12T06:25:57;100567.19;;;10.57;80.20
72855;BME280;60991;51.278;22.550;2022-11-12T06:27:27;100565.91;;;10.60;80.24
72855;BME280;60991;51.278;22.550;2022-11-12T06:28:57;100571.69;;;10.57;79.98
72855;BME280;60991;51.278;22.550;2022-11-12T06:30:28;100573.88;;;10.66;79.91
72855;BME280;60991;51.278;22.550;2022-11-12T06:31:58;100572.44;;;10.70;79.49
72855;BME280;60991;51.278;22.550;2022-11-12T06:33:28;100575.94;;;10.64;79.76
72855;BME280;60991;51.278;22.550;2022-11-12T06:34:58;100570.19;;;10.74;79.37
72855;BME280;60991;51.278;22.550;2022-11-12T06:36:28;100573.25;;;10.71;79.52
72855;BME280;60991;51.278;22.550;2022-11-12T06:37:59;100581.03;;;10.72;79.48
72855;BME280;60991;51.278;22.550;2022-11-12T06:39:29;100574.28;;;10.63;79.66
72855;BME280;60991;51.278;22.550;2022-11-12T06:40:59;100577.72;;;10.77;79.27
72855;BME280;60991;51.278;22.550;2022-11-12T06:42:30;100579.00;;;10.68;79.51
72855;BME280;60991;51.278;22.550;2022-11-12T06:44:03;100574.91;;;10.72;79.54
72855;BME280;60991;51.278;22.550;2022-11-12T06:45:33;100586.34;;;10.66;79.71
72855;BME280;60991;51.278;22.550;2022-11-12T06:47:03;100572.66;;;10.62;79.82
72855;BME280;60991;51.278;22.550;2022-11-12T06:48:34;100576.31;;;10.74;79.62
72855;BME280;60991;51.278;22.550;2022-11-12T06:50:04;100580.00;;;10.67;79.58
72855;BME280;60991;51.278;22.550;2022-11-12T06:51:34;100587.13;;;10.80;79.17
72855;BME280;60991;51.278;22.550;2022-11-12T06:53:04;100581.59;;;10.81;79.15
72855;BME280;60991;51.278;22.550;2022-11-12T06:54:35;100580.56;;;10.82;79.13
72855;BME280;60991;51.278;22.550;2022-11-12T06:56:06;100579.75;;;10.82;79.34
72855;BME280;60991;51.278;22.550;2022-11-12T06:57:36;100585.13;;;10.68;79.57
72855;BME280;60991;51.278;22.550;2022-11-12T06:59:06;100587.38;;;10.58;80.08
72855;BME280;60991;51.278;22.550;2022-11-12T07:00:37;100587.97;;;10.60;80.53
72855;BME280;60991;51.278;22.550;2022-11-12T07:02:10;100590.25;;;10.57;80.56
72855;BME280;60991;51.278;22.550;2022-11-12T07:03:42;100590.63;;;10.60;80.25
72855;BME280;60991;51.278;22.550;2022-11-12T07:05:12;100585.75;;;10.57;80.20
72855;BME280;60991;51.278;22.550;2022-11-12T07:06:49;100582.47;;;10.68;80.15
72855;BME280;60991;51.278;22.550;2022-11-12T07:08:19;100589.78;;;10.80;79.36
72855;BME280;60991;51.278;22.550;2022-11-12T07:09:49;100594.03;;;10.87;79.32
72855;BME280;60991;51.278;22.550;2022-11-12T07:11:19;100587.31;;;10.78;79.31
72855;BME280;60991;51.278;22.550;2022-11-12T07:12:52;100594.88;;;10.88;78.98
72855;BME280;60991;51.278;22.550;2022-11-12T07:14:22;100589.97;;;10.91;79.30
72855;BME280;60991;51.278;22.550;2022-11-12T07:15:55;100596.69;;;10.94;78.88
72855;BME280;60991;51.278;22.550;2022-11-12T07:17:26;100594.88;;;10.81;79.46
72855;BME280;60991;51.278;22.550;2022-11-12T07:18:56;100594.47;;;10.77;79.49
72855;BME280;60991;51.278;22.550;2022-11-12T07:20:26;100596.31;;;10.84;79.22
72855;BME280;60991;51.278;22.550;2022-11-12T07:21:56;100602.59;;;10.96;78.62
72855;BME280;60991;51.278;22.550;2022-11-12T07:23:29;100602.81;;;10.94;79.13
72855;BME280;60991;51.278;22.550;2022-11-12T07:24:59;100600.13;;;11.01;78.81
72855;BME280;60991;51.278;22.550;2022-11-12T07:26:30;100602.97;;;11.13;78.08
72855;BME280;60991;51.278;22.550;2022-11-12T07:28:00;100596.84;;;11.05;78.52
72855;BME280;60991;51.278;22.550;2022-11-12T07:29:30;100601.31;;;11.12;78.09
72855;BME280;60991;51.278;22.550;2022-11-12T07:31:03;100599.31;;;11.00;78.60
72855;BME280;60991;51.278;22.550;2022-11-12T07:32:33;100602.59;;;10.96;78.61
72855;BME280;60991;51.278;22.550;2022-11-12T07:34:04;100599.31;;;11.00;78.69
72855;BME280;60991;51.278;22.550;2022-11-12T07:35:34;100596.84;;;11.05;78.44
72855;BME280;60991;51.278;22.550;2022-11-12T07:37:04;100595.00;;;11.13;78.25
72855;BME280;60991;51.278;22.550;2022-11-12T07:38:37;100595.19;;;11.11;78.11
72855;BME280;60991;51.278;22.550;2022-11-12T07:40:07;100587.84;;;11.13;78.15
72855;BME280;60991;51.278;22.550;2022-11-12T07:41:38;100589.88;;;11.11;78.25
72855;BME280;60991;51.278;22.550;2022-11-12T07:43:08;100591.34;;;11.00;78.24
72855;BME280;60991;51.278;22.550;2022-11-12T07:44:38;100593.63;;;10.90;78.84
72855;BME280;60991;51.278;22.550;2022-11-12T07:46:21;100599.78;;;10.84;78.90
72855;BME280;60991;51.278;22.550;2022-11-12T07:47:51;100597.31;;;10.89;78.66
72855;BME280;60991;51.278;22.550;2022-11-12T07:49:21;100596.50;;;10.89;78.86
72855;BME280;60991;51.278;22.550;2022-11-12T07:50:58;100601.00;;;10.82;79.10
72855;BME280;60991;51.278;22.550;2022-11-12T07:52:31;100595.69;;;10.88;78.93